Time;durP1;ratioP1;P1;durP2;ratioP2;P2;SDS_P1;SDS_P2;PMS_P1;PMS_P2;Temp;Humidity;BMP_temperature;BMP_pressure;BME280_temperature;BME280_humidity;BME280_pressure;Samples;Min_cycle;Max_cycle;Signal;HPM_P1;HPM_P2
2021/12/11 00:02:21;;;;;;;9.80;7.05;;;;;;;8.87;75.38;98999.30;1788703;79;21004;-40
2021/12/11 00:04:54;;;;;;;11.28;7.05;;;;;;;8.91;75.25;99009.60;1788953;79;20961;-40
2021/12/11 00:07:20;;;;;;;11.12;7.28;;;;;;;8.92;75.23;99002.50;1789012;80;21759;-40
2021/12/11 00:09:55;;;;;;;13.43;7.12;;;;;;;8.91;75.19;99013.09;1788819;79;20989;-40
2021/12/11 00:12:29;;;;;;;9.20;6.30;;;;;;;8.92;75.23;99011.17;1788761;79;21644;-41
2021/12/11 00:15:04;;;;;;;10.05;7.00;;;;;;;8.95;75.08;99016.67;1788789;80;21025;-40
2021/12/11 00:17:32;;;;;;;9.68;7.60;;;;;;;8.99;74.98;99021.58;1788034;79;21029;-41
2021/12/11 00:19:59;;;;;;;11.43;7.92;;;;;;;8.97;75.02;99023.84;1788774;80;21105;-40
2021/12/11 00:22:29;;;;;;;10.50;7.33;;;;;;;8.96;75.07;99011.45;1788454;80;20886;-40
2021/12/11 00:25:09;;;;;;;12.78;7.47;;;;;;;8.96;75.11;99018.21;1788662;79;20995;-41
2021/12/11 00:27:39;;;;;;;12.53;7.03;;;;;;;9.00;75.14;99013.68;1789126;80;20953;-40
2021/12/11 00:30:10;;;;;;;11.75;7.78;;;;;;;9.01;75.19;99021.98;1788874;80;20980;-41
2021/12/11 00:32:37;;;;;;;12.30;8.23;;;;;;;8.97;75.41;99020.34;1788838;80;21107;-40
2021/12/11 00:35:09;;;;;;;14.55;8.38;;;;;;;8.92;75.59;99026.83;1788611;80;21603;-41
2021/12/11 00:37:37;;;;;;;11.40;7.90;;;;;;;8.89;75.81;99015.39;1788758;80;20913;-41
2021/12/11 00:40:10;;;;;;;14.73;9.23;;;;;;;8.88;76.00;99027.33;1789080;79;20994;-41
2021/12/11 00:42:38;;;;;;;14.30;9.88;;;;;;;8.85;76.10;99011.83;1788131;79;21032;-41
2021/12/11 00:45:13;;;;;;;11.83;9.38;;;;;;;8.79;76.28;99020.00;1788957;80;21123;-40
2021/12/11 00:47:49;;;;;;;14.30;9.25;;;;;;;8.78;76.42;99020.35;1788787;80;20957;-41
2021/12/11 00:50:17;;;;;;;14.23;10.30;;;;;;;8.78;76.48;99009.54;1788621;79;20991;-41
2021/12/11 00:52:50;;;;;;;12.40;9.23;;;;;;;8.72;76.72;99012.52;1788641;80;21526;-41
2021/12/11 00:55:24;;;;;;;12.88;9.10;;;;;;;8.69;76.81;99026.76;1789023;80;21012;-40
2021/12/11 00:58:13;;;;;;;12.88;9.80;;;;;;;8.71;76.94;99025.81;1788805;80;21800;-41
2021/12/11 01:00:54;;;;;;;16.35;11.38;;;;;;;8.75;76.96;99019.16;1764048;80;20981;-41
2021/12/11 01:03:32;;;;;;;17.70;9.40;;;;;;;8.65;77.27;99021.06;1788882;79;20957;-40
2021/12/11 01:06:02;;;;;;;14.03;9.60;;;;;;;8.62;77.50;99023.11;1782942;80;21013;-41
2021/12/11 01:08:33;;;;;;;13.45;10.65;;;;;;;8.63;77.66;99023.33;1788793;79;21064;-41
2021/12/11 01:11:10;;;;;;;15.00;10.32;;;;;;;8.60;77.85;99025.39;1788997;79;20937;-41
2021/12/11 01:13:43;;;;;;;11.93;9.55;;;;;;;8.56;78.03;99027.25;1788676;80;20925;-41
2021/12/11 01:16:13;;;;;;;13.43;10.32;;;;;;;8.55;78.22;99027.02;1788966;79;20933;-41
2021/12/11 01:18:42;;;;;;;;;;;;;;;8.56;78.20;99023.98;1791443;80;21020;-41
2021/12/11 01:24:14;;;;;;;15.83;10.82;;;;;;;8.39;78.94;99006.02;1788657;80;21126;-40
2021/12/11 01:26:47;;;;;;;16.05;11.10;;;;;;;8.38;79.15;99005.80;1788520;79;20957;-41
2021/12/11 01:29:17;;;;;;;14.80;10.72;;;;;;;8.33;79.32;98998.00;1788787;79;21000;-41
2021/12/11 01:31:44;;;;;;;16.45;10.90;;;;;;;8.29;79.58;98998.69;1788942;79;21076;-41
2021/12/11 01:34:11;;;;;;;15.65;10.90;;;;;;;8.31;79.66;99002.95;1789122;80;21531;-41
2021/12/11 01:36:39;;;;;;;18.77;11.57;;;;;;;8.32;79.70;99012.63;1788728;80;21127;-40
2021/12/11 01:39:14;;;;;;;18.65;11.55;;;;;;;8.29;79.79;99010.84;1788848;79;21487;-40
2021/12/11 01:41:41;;;;;;;14.93;10.93;;;;;;;8.27;80.04;98996.11;1788858;80;21004;-41
2021/12/11 01:44:13;;;;;;;15.60;12.00;;;;;;;8.28;79.96;99009.23;1788663;80;21063;-41
2021/12/11 01:46:40;;;;;;;14.75;11.18;;;;;;;8.28;80.05;99006.53;1788893;79;21475;-41
2021/12/11 01:49:15;;;;;;;14.47;11.08;;;;;;;8.25;80.24;98995.09;1788898;79;21771;-41
2021/12/11 01:51:52;;;;;;;16.05;12.50;;;;;;;8.27;80.22;99011.75;1788980;79;21000;-41
2021/12/11 01:54:34;;;;;;;16.90;12.75;;;;;;;8.29;80.30;99005.97;1788930;80;21506;-41
2021/12/11 01:57:06;;;;;;;14.30;10.63;;;;;;;8.28;80.27;98991.69;1788229;79;21031;-41
2021/12/11 01:59:37;;;;;;;18.05;12.93;;;;;;;8.27;80.23;99015.02;1789059;79;21048;-40
2021/12/11 02:02:09;;;;;;;17.52;13.32;;;;;;;8.27;80.35;99020.41;1788879;80;21036;-40
2021/12/11 02:04:41;;;;;;;15.75;11.78;;;;;;;8.25;80.40;99019.97;1788723;79;21443;-40
2021/12/11 02:07:13;;;;;;;16.20;12.65;;;;;;;8.27;80.38;99022.55;1789054;79;21507;-41
2021/12/11 02:09:40;;;;;;;18.00;14.03;;;;;;;8.29;80.33;99017.59;1788781;79;20996;-41
2021/12/11 02:12:12;;;;;;;17.07;12.70;;;;;;;8.25;80.38;99024.02;1788801;80;21659;-40
2021/12/11 02:14:45;;;;;;;18.42;13.15;;;;;;;8.22;80.53;99035.53;1788884;80;21573;-41
2021/12/11 02:17:24;;;;;;;16.15;13.75;;;;;;;8.27;80.48;99034.70;1788705;79;20969;-41
2021/12/11 02:19:52;;;;;;;22.48;14.73;;;;;;;8.28;80.36;99034.89;1784455;79;20960;-41
2021/12/11 02:22:24;;;;;;;18.50;13.28;;;;;;;8.24;80.49;99036.73;1788668;79;21010;-41
2021/12/11 02:24:58;;;;;;;17.87;14.63;;;;;;;8.29;80.36;99035.68;1788244;79;21013;-41
2021/12/11 02:27:33;;;;;;;20.82;15.20;;;;;;;8.29;80.34;99040.55;1788900;80;21106;-40
2021/12/11 02:30:22;;;;;;;17.92;13.70;;;;;;;8.28;80.42;99034.11;1788575;79;21008;-41
2021/12/11 02:33:18;;;;;;;21.30;14.93;;;;;;;8.26;80.47;99043.93;1789006;79;20949;-40
2021/12/11 02:36:07;;;;;;;19.12;15.00;;;;;;;8.28;80.37;99041.64;1788890;80;21296;-40
2021/12/11 02:38:37;;;;;;;17.35;13.85;;;;;;;8.24;80.44;99044.84;1786428;79;21061;-40
2021/12/11 02:41:20;;;;;;;17.95;15.25;;;;;;;8.24;80.45;99043.48;1788513;79;21534;-40
2021/12/11 02:44:03;;;;;;;22.60;16.15;;;;;;;8.27;80.41;99047.42;1788754;80;21829;-40
2021/12/11 02:46:36;;;;;;;19.90;15.20;;;;;;;8.24;80.47;99043.48;1788298;79;21640;-41
2021/12/11 02:49:11;;;;;;;19.82;16.65;;;;;;;8.21;80.54;99031.27;1789014;79;21056;-40
2021/12/11 02:51:58;;;;;;;21.12;16.60;;;;;;;8.25;80.48;99042.92;1788931;80;21525;-40
2021/12/11 02:54:45;;;;;;;21.45;15.43;;;;;;;8.24;80.51;99044.84;1788833;79;21902;-40
2021/12/11 02:57:21;;;;;;;21.42;16.25;;;;;;;8.27;80.44;99042.80;1788679;80;21025;-41
2021/12/11 02:59:48;;;;;;;19.17;16.48;;;;;;;8.31;80.32;99044.82;1781946;79;21514;-40
2021/12/11 03:02:25;;;;;;;24.20;17.85;;;;;;;8.31;80.24;99048.87;1757253;81;21465;-41
2021/12/11 03:04:55;;;;;;;22.37;16.30;;;;;;;8.26;80.22;99049.33;1757887;81;21557;-41
2021/12/11 03:07:26;;;;;;;;;;;;;;;8.28;80.24;99042.99;1760309;81;21098;-40
2021/12/11 03:09:55;;;;;;;25.85;19.37;;;;;;;8.33;80.18;99053.37;1757288;81;20119;-40
2021/12/11 03:12:23;;;;;;;25.32;18.62;;;;;;;8.24;80.47;99051.59;1757582;81;21648;-41
2021/12/11 03:14:50;;;;;;;20.05;16.70;;;;;;;8.26;80.44;99043.93;1757536;81;21033;-41
2021/12/11 03:18:21;;;;;;;24.37;18.62;;;;;;;8.40;80.09;99037.30;1777592;78;22746;-40
2021/12/11 03:20:49;;;;;;;21.40;16.85;;;;;;;8.33;80.08;99029.06;1755154;81;20999;-40
2021/12/11 03:23:15;;;;;;;21.25;15.98;;;;;;;8.31;80.00;99042.12;1755011;81;21093;-40
2021/12/11 03:25:43;;;;;;;25.57;17.67;;;;;;;8.32;79.96;99038.29;1755007;81;20965;-40
2021/12/11 03:28:10;;;;;;;21.73;18.20;;;;;;;8.34;79.92;99036.79;1758280;80;21495;-40
2021/12/11 03:30:41;;;;;;;23.52;16.30;;;;;;;8.34;79.88;99034.66;1756018;81;20972;-40
2021/12/11 03:33:13;;;;;;;21.93;16.02;;;;;;;8.29;79.89;99036.50;1756160;81;20995;-40
2021/12/11 03:35:40;;;;;;;21.73;16.97;;;;;;;8.33;79.81;99029.06;1742949;82;22031;-40
2021/12/11 03:38:08;;;;;;;22.13;16.65;;;;;;;8.33;79.73;99028.47;1711884;83;20930;-40
2021/12/11 03:40:35;;;;;;;19.92;15.03;;;;;;;8.33;79.67;99025.01;1743340;82;21015;-40
2021/12/11 03:43:05;;;;;;;20.92;16.52;;;;;;;8.34;79.50;99015.74;1711788;83;21037;-40
2021/12/11 03:45:34;;;;;;;21.07;16.05;;;;;;;8.37;79.42;99021.81;1743510;82;21041;-40
2021/12/11 03:48:12;;;;;;;23.27;14.23;;;;;;;8.33;79.42;99019.61;1711840;83;21982;-40
2021/12/11 03:50:39;;;;;;;22.30;15.72;;;;;;;8.30;79.43;99014.33;1742922;82;20996;-40
2021/12/11 03:53:05;;;;;;;19.00;15.35;;;;;;;8.07;79.34;98969.63;1712038;83;20990;-40
2021/12/11 03:55:41;;;;;;;19.35;12.78;;;;;;;8.27;79.42;99006.91;1742961;82;21072;-40
2021/12/11 03:58:08;;;;;;;19.70;14.80;;;;;;;8.26;79.45;98999.38;1743075;82;20925;-41
2021/12/11 04:00:40;;;;;;;22.48;14.85;;;;;;;8.28;79.36;98995.73;1702158;83;21156;-40
2021/12/11 04:03:08;;;;;;;21.02;13.62;;;;;;;8.26;79.29;98999.94;1692924;84;21018;-40
2021/12/11 04:05:38;;;;;;;17.17;13.20;;;;;;;8.22;79.34;99003.91;1693680;84;21045;-40
2021/12/11 04:08:05;;;;;;;17.55;13.98;;;;;;;8.24;79.23;98986.78;1693214;84;21034;-40
2021/12/11 04:10:31;;;;;;;16.50;13.28;;;;;;;8.24;79.14;98994.87;1693347;84;21041;-40
2021/12/11 04:13:00;;;;;;;16.62;12.65;;;;;;;8.23;79.15;98990.60;1693264;84;21841;-40
2021/12/11 04:15:26;;;;;;;17.85;13.30;;;;;;;8.28;79.12;98985.50;1693417;84;21054;-40
2021/12/11 04:17:54;;;;;;;21.15;13.95;;;;;;;8.29;78.98;98984.37;1695145;84;21030;-40
2021/12/11 04:20:23;;;;;;;20.20;13.28;;;;;;;8.23;78.92;98982.50;1727308;83;21020;-40
2021/12/11 04:22:50;;;;;;;18.57;13.58;;;;;;;8.20;79.03;98980.52;1726975;83;22092;-40
2021/12/11 04:25:19;;;;;;;16.67;13.43;;;;;;;8.24;78.86;99007.59;1726849;83;21118;-40
2021/12/11 04:27:45;;;;;;;17.15;12.45;;;;;;;8.23;78.82;99007.38;1727016;82;21008;-40
2021/12/11 04:30:15;;;;;;;13.65;11.75;;;;;;;8.23;78.80;99015.47;1726916;83;20973;-40
2021/12/11 04:32:45;;;;;;;17.32;12.53;;;;;;;8.28;78.71;99030.84;1726562;83;20977;-40
2021/12/11 04:35:12;;;;;;;16.55;12.03;;;;;;;8.31;78.69;99031.31;1726509;82;21141;-40
2021/12/11 04:37:40;;;;;;;13.20;11.10;;;;;;;8.31;78.50;99029.40;1726396;83;21140;-40
2021/12/11 04:40:12;;;;;;;15.38;11.60;;;;;;;8.34;78.48;99033.30;1726517;83;21023;-40
2021/12/11 04:42:56;;;;;;;16.60;12.43;;;;;;;8.40;78.35;99037.30;1726413;82;21119;-40
2021/12/11 04:45:38;;;;;;;15.63;11.53;;;;;;;8.39;78.28;99033.81;1725291;82;20937;-41
2021/12/11 04:48:22;;;;;;;14.60;11.40;;;;;;;8.38;78.33;99035.51;1726441;83;21028;-41
2021/12/11 04:50:59;;;;;;;16.27;11.78;;;;;;;8.37;78.43;99031.27;1725748;82;21093;-41
2021/12/11 04:53:37;;;;;;;15.25;12.30;;;;;;;8.36;78.49;99035.09;1725678;82;21041;-40
2021/12/11 04:58:47;;;;;;;16.97;13.03;;;;;;;8.31;78.93;99018.59;1726385;83;21550;-41
2021/12/11 05:01:10;;;;;;;19.77;13.60;;;;;;;8.29;79.00;99017.59;1743686;81;21848;-41
2021/12/11 05:11:17;;;;;;;19.17;13.50;;;;;;;8.11;79.71;99009.63;1756717;81;21029;-41
2021/12/11 05:13:45;;;;;;;19.77;14.90;;;;;;;8.08;79.86;99014.40;1756841;81;21008;-41
2021/12/11 05:16:14;;;;;;;19.70;15.63;;;;;;;8.07;79.97;99006.08;1756490;81;21155;-40
2021/12/11 05:18:43;;;;;;;21.52;15.10;;;;;;;8.03;80.11;99008.48;1752576;81;21010;-41
2021/12/11 05:21:15;;;;;;;18.52;15.28;;;;;;;7.95;80.43;99000.77;1752127;81;20883;-41
2021/12/11 05:23:42;;;;;;;20.85;15.75;;;;;;;7.95;80.46;98989.97;1752011;81;21511;-40
2021/12/11 05:26:09;;;;;;;21.37;15.72;;;;;;;7.92;80.50;99007.44;1751975;81;21045;-41
2021/12/11 05:28:36;;;;;;;19.35;15.30;;;;;;;7.90;80.67;99033.42;1751943;81;21082;-41
2021/12/11 05:31:05;;;;;;;18.50;15.25;;;;;;;7.95;80.69;99031.02;1751877;81;21005;-40
2021/12/11 05:33:33;;;;;;;18.37;15.40;;;;;;;7.99;80.57;99042.12;1751992;81;20953;-40
2021/12/11 05:36:00;;;;;;;19.45;15.10;;;;;;;8.00;80.50;99043.69;1751773;81;21523;-41
2021/12/11 05:38:27;;;;;;;18.37;14.58;;;;;;;8.03;80.47;99044.92;1752298;81;21514;-41
2021/12/11 05:40:59;;;;;;;19.95;15.18;;;;;;;8.08;80.28;99045.45;1751802;81;21113;-40
2021/12/11 05:43:26;;;;;;;19.95;14.58;;;;;;;8.08;80.25;99048.14;1752292;81;20965;-40
2021/12/11 05:45:52;;;;;;;15.98;13.65;;;;;;;8.08;80.28;99045.45;1752111;81;20988;-41
2021/12/11 05:48:19;;;;;;;19.62;14.90;;;;;;;8.11;80.20;99048.78;1751874;81;20981;-41
2021/12/11 05:50:50;;;;;;;16.52;13.85;;;;;;;8.11;80.09;99047.44;1752062;81;21092;-41
2021/12/11 05:53:17;;;;;;;19.35;13.80;;;;;;;8.09;80.18;99041.59;1752114;81;21110;-41
2021/12/11 05:55:45;;;;;;;18.35;14.07;;;;;;;8.12;80.15;99039.55;1752024;81;20930;-41
2021/12/11 05:58:14;;;;;;;17.70;14.65;;;;;;;8.12;80.12;99029.32;1752164;81;20973;-40
2021/12/11 06:00:46;;;;;;;17.17;13.68;;;;;;;8.10;80.15;99033.70;1763372;81;21021;-41
2021/12/11 06:03:13;;;;;;;18.17;13.93;;;;;;;8.11;80.32;99032.58;1772788;81;21076;-40
2021/12/11 06:05:40;;;;;;;20.82;16.87;;;;;;;8.16;80.17;99021.52;1772179;81;21954;-41
2021/12/11 06:08:08;;;;;;;24.32;17.80;;;;;;;8.17;80.12;99026.35;1772148;81;21009;-40
2021/12/11 06:10:36;;;;;;;21.30;17.12;;;;;;;8.13;80.09;99039.75;1772306;81;21510;-40
2021/12/11 06:13:03;;;;;;;22.42;16.93;;;;;;;8.10;80.25;99036.41;1772302;81;21032;-41
2021/12/11 06:15:32;;;;;;;23.87;17.65;;;;;;;8.10;80.25;99039.67;1772025;81;20973;-41
2021/12/11 06:17:58;;;;;;;21.17;16.62;;;;;;;8.06;80.37;99030.15;1769568;81;21839;-41
2021/12/11 06:20:28;;;;;;;20.32;16.37;;;;;;;8.02;80.48;99039.30;1766523;81;21015;-41
2021/12/11 06:22:55;;;;;;;;;;;;;;;8.04;80.46;99032.97;1769059;81;21053;-41
2021/12/11 06:25:27;;;;;;;22.37;17.40;;;;;;;8.02;80.48;99022.54;1766664;80;20116;-41
2021/12/11 06:27:54;;;;;;;20.35;15.48;;;;;;;7.91;80.83;99024.20;1766537;80;20922;-41
2021/12/11 06:30:22;;;;;;;24.82;17.50;;;;;;;7.93;80.87;99030.61;1766577;81;21803;-41
2021/12/11 06:32:50;;;;;;;22.30;17.02;;;;;;;7.95;80.79;99034.51;1766355;81;21025;-41
2021/12/11 06:35:28;;;;;;;21.68;16.25;;;;;;;7.91;80.92;99018.02;1766523;81;21068;-41
2021/12/11 06:37:55;;;;;;;20.52;17.23;;;;;;;7.90;80.98;99030.72;1766684;81;21570;-41
2021/12/11 06:40:23;;;;;;;24.43;18.80;;;;;;;7.89;81.10;99027.04;1766565;81;21846;-41
2021/12/11 06:42:51;;;;;;;24.30;17.42;;;;;;;7.89;81.06;99026.45;1766583;81;21777;-41
2021/12/11 06:45:22;;;;;;;24.27;16.82;;;;;;;7.87;81.17;99031.43;1766373;80;20944;-41
2021/12/11 06:47:48;;;;;;;22.58;18.07;;;;;;;7.89;81.14;99041.30;1766519;81;20961;-40
2021/12/11 06:50:18;;;;;;;26.02;17.40;;;;;;;7.89;81.11;99037.25;1766424;81;21021;-41
2021/12/11 06:52:47;;;;;;;22.60;17.27;;;;;;;7.87;81.20;99047.63;1766983;81;21361;-41
2021/12/11 06:55:15;;;;;;;22.90;17.30;;;;;;;7.92;81.09;99040.61;1766718;81;21862;-41
2021/12/11 06:57:41;;;;;;;20.65;16.93;;;;;;;7.93;80.89;99040.84;1766372;81;21015;-40
2021/12/11 07:00:10;;;;;;;20.80;15.75;;;;;;;7.93;80.80;99054.33;1766459;80;21025;-40
2021/12/11 07:02:37;;;;;;;22.42;16.87;;;;;;;7.93;80.69;99036.00;1766405;81;21021;-41
2021/12/11 07:05:05;;;;;;;22.62;17.15;;;;;;;7.95;80.46;99046.65;1766695;81;21022;-41
2021/12/11 07:07:34;;;;;;;21.50;15.90;;;;;;;7.92;80.49;99039.27;1766466;81;21108;-40
2021/12/11 07:10:04;;;;;;;21.02;15.80;;;;;;;7.92;80.45;99048.71;1766387;80;20969;-41
2021/12/11 07:12:33;;;;;;;20.62;16.55;;;;;;;7.97;80.19;99053.06;1766512;81;20969;-41
2021/12/11 07:15:00;;;;;;;21.55;15.08;;;;;;;7.94;80.20;99050.48;1766468;81;21088;-40
2021/12/11 07:17:27;;;;;;;22.00;16.00;;;;;;;7.93;80.09;99043.53;1766003;80;21080;-41
2021/12/11 07:19:54;;;;;;;21.65;16.55;;;;;;;7.97;79.98;99041.70;1758097;81;21811;-40
2021/12/11 07:22:21;;;;;;;21.60;15.45;;;;;;;7.94;79.95;99049.13;1757911;81;21002;-41
2021/12/11 07:25:01;;;;;;;19.67;15.75;;;;;;;7.93;79.95;99043.53;1758090;81;20990;-41
2021/12/11 07:27:29;;;;;;;23.65;15.85;;;;;;;7.95;79.86;99045.30;1757738;81;21009;-41
2021/12/11 07:29:55;;;;;;;23.40;16.37;;;;;;;7.95;79.78;99043.95;1736743;81;21500;-41
2021/12/11 07:32:22;;;;;;;19.52;15.15;;;;;;;7.96;79.66;99045.52;1757992;81;21503;-41
2021/12/11 07:34:49;;;;;;;19.80;16.45;;;;;;;7.97;79.46;99046.31;1758052;81;21012;-41
2021/12/11 07:37:16;;;;;;;25.90;15.68;;;;;;;7.98;79.40;99053.28;1758321;81;20994;-41
2021/12/11 07:39:42;;;;;;;21.42;15.00;;;;;;;7.94;79.23;99053.17;1758117;81;21069;-41
2021/12/11 07:42:10;;;;;;;17.87;14.75;;;;;;;7.96;79.27;99053.63;1758298;81;21101;-40
2021/12/11 07:44:36;;;;;;;16.57;14.07;;;;;;;8.02;79.12;99053.59;1757920;81;21913;-41
2021/12/11 07:47:04;;;;;;;17.57;13.62;;;;;;;8.01;79.05;99057.98;1757992;81;21032;-40
2021/12/11 07:49:32;;;;;;;17.80;13.35;;;;;;;7.99;79.05;99055.61;1758148;81;20935;-40
2021/12/11 07:51:58;;;;;;;18.17;13.90;;;;;;;8.02;78.82;99053.59;1758174;81;21025;-41
2021/12/11 07:54:25;;;;;;;19.98;14.18;;;;;;;8.02;78.64;99056.28;1758232;81;21578;-40
2021/12/11 07:56:53;;;;;;;20.10;14.05;;;;;;;8.01;78.65;99057.41;1758071;81;21497;-41
2021/12/11 07:59:20;;;;;;;19.30;13.98;;;;;;;7.98;78.61;99059.47;1758210;81;20982;-41
2021/12/11 08:01:50;;;;;;;20.55;14.85;;;;;;;8.01;78.56;99057.41;1758075;81;21006;-40
2021/12/11 08:04:16;;;;;;;18.27;13.50;;;;;;;8.00;78.66;99057.75;1758290;81;21008;-41
2021/12/11 08:06:43;;;;;;;17.75;14.05;;;;;;;7.99;78.71;99063.71;1758366;81;21021;-41
2021/12/11 08:09:15;;;;;;;20.17;14.87;;;;;;;8.04;78.59;99064.80;1758387;81;21209;-40
2021/12/11 08:11:42;;;;;;;18.40;15.05;;;;;;;8.04;78.34;99062.09;1758027;81;21085;-41
2021/12/11 08:14:09;;;;;;;23.18;14.73;;;;;;;8.02;78.17;99058.20;1758213;81;21096;-41
2021/12/11 08:16:46;;;;;;;17.17;13.65;;;;;;;8.04;78.16;99062.09;1758146;81;20918;-40
2021/12/11 08:19:07;;;;;;;19.27;14.73;;;;;;;8.07;78.11;99066.03;1757537;80;21074;-41
2021/12/11 08:21:34;;;;;;;18.23;13.93;;;;;;;8.04;78.03;99065.36;1758317;81;21134;-41
2021/12/11 08:24:04;;;;;;;19.32;14.43;;;;;;;8.02;78.11;99068.44;1758288;81;21515;-40
2021/12/11 08:26:29;;;;;;;21.75;15.63;;;;;;;8.06;78.04;99063.11;1758049;81;20950;-41
2021/12/11 08:28:55;;;;;;;20.62;15.00;;;;;;;8.07;78.01;99062.77;1758239;81;21567;-41
2021/12/11 08:31:23;;;;;;;22.50;14.58;;;;;;;8.06;77.95;99057.15;1758336;81;21853;-41
2021/12/11 08:33:50;;;;;;;20.82;15.15;;;;;;;8.08;77.91;99054.89;1756992;80;21810;-40
2021/12/11 08:36:18;;;;;;;18.65;15.10;;;;;;;8.10;77.80;99053.17;1758116;81;21001;-41
2021/12/11 08:38:44;;;;;;;18.50;14.25;;;;;;;8.06;77.93;99055.80;1758289;81;21064;-41
2021/12/11 08:41:14;;;;;;;23.40;14.83;;;;;;;8.02;77.94;99059.55;1757991;81;22142;-41
2021/12/11 08:43:41;;;;;;;20.48;15.40;;;;;;;8.07;77.88;99067.38;1758405;81;21025;-41
2021/12/11 08:46:11;;;;;;;19.42;14.03;;;;;;;8.06;77.89;99060.41;1758292;81;21764;-41
2021/12/11 08:48:42;;;;;;;19.07;14.43;;;;;;;8.03;77.87;99059.20;1758287;81;21514;-40
2021/12/11 08:51:17;;;;;;;20.30;14.83;;;;;;;8.06;77.85;99066.59;1757796;81;21099;-41
2021/12/11 08:53:43;;;;;;;24.80;14.98;;;;;;;8.05;77.80;99065.02;1758094;81;21527;-40
2021/12/11 08:56:10;;;;;;;17.32;14.33;;;;;;;8.05;77.77;99066.94;1758036;81;21049;-41
2021/12/11 08:58:39;;;;;;;19.95;13.93;;;;;;;8.09;77.68;99063.75;1758269;81;21503;-41
2021/12/11 09:01:16;;;;;;;20.08;14.38;;;;;;;8.06;77.44;99065.25;1758132;81;20930;-41
2021/12/11 09:03:57;;;;;;;17.40;12.80;;;;;;;8.04;77.44;99070.77;1758199;81;20969;-41
2021/12/11 09:06:33;;;;;;;20.50;14.15;;;;;;;8.03;77.38;99060.55;1757724;81;20973;-41
2021/12/11 09:09:05;;;;;;;19.20;13.90;;;;;;;8.02;77.25;99065.73;1758188;81;21014;-41
2021/12/11 09:11:44;;;;;;;17.77;13.28;;;;;;;7.99;77.38;99065.66;1758140;81;21775;-41
2021/12/11 09:14:26;;;;;;;22.13;14.35;;;;;;;7.98;77.55;99062.73;1758232;81;21571;-41
2021/12/11 09:17:06;;;;;;;22.35;14.53;;;;;;;7.99;77.45;99066.41;1758215;81;21105;-41
2021/12/11 09:19:38;;;;;;;22.05;13.80;;;;;;;7.96;77.60;99074.44;1751338;81;21065;-41
2021/12/11 09:22:22;;;;;;;19.82;14.75;;;;;;;7.94;77.80;99069.97;1758111;81;21019;-41
2021/12/11 09:25:04;;;;;;;21.42;15.23;;;;;;;7.95;77.92;99069.59;1758343;81;21155;-40
2021/12/11 09:27:47;;;;;;;22.42;14.68;;;;;;;7.92;78.01;99069.52;1739602;81;21017;-41
2021/12/11 09:30:41;;;;;;;18.75;13.93;;;;;;;7.93;78.10;99069.18;1758215;81;21411;-40
2021/12/11 09:33:18;;;;;;;20.10;15.30;;;;;;;7.94;77.98;99072.66;1757925;81;21048;-41
2021/12/11 09:36:02;;;;;;;23.47;14.38;;;;;;;7.91;78.04;99073.34;1758061;81;21067;-41
2021/12/11 09:38:37;;;;;;;17.02;13.40;;;;;;;7.88;78.20;99065.95;1756977;81;21139;-41
2021/12/11 09:41:21;;;;;;;19.32;14.58;;;;;;;7.91;78.21;99071.99;1757410;81;21061;-41
2021/12/11 09:43:58;;;;;;;21.82;14.83;;;;;;;7.92;78.12;99067.61;1758225;81;21014;-41
2021/12/11 09:46:32;;;;;;;20.30;14.18;;;;;;;7.86;78.14;99064.94;1758095;81;21030;-41
2021/12/11 09:48:59;;;;;;;20.20;14.65;;;;;;;7.81;78.39;99060.59;1758092;81;21030;-41
2021/12/11 09:51:32;;;;;;;22.40;15.35;;;;;;;7.81;78.42;99069.25;1758350;81;21112;-41
2021/12/11 09:54:03;;;;;;;23.20;14.87;;;;;;;7.80;78.52;99067.11;1758148;81;20935;-41
2021/12/11 09:56:48;;;;;;;19.32;15.38;;;;;;;7.77;78.63;99066.47;1758258;81;21483;-41
2021/12/11 09:59:16;;;;;;;24.25;14.93;;;;;;;7.79;78.69;99064.19;1757789;81;21806;-41
2021/12/11 10:01:46;;;;;;;25.08;16.02;;;;;;;7.79;78.68;99065.54;1758565;80;21046;-41
2021/12/11 10:04:20;;;;;;;21.77;15.13;;;;;;;7.74;78.88;99061.78;1758549;81;21178;-41
2021/12/11 10:07:38;;;;;;;22.07;15.50;;;;;;;7.69;78.99;99060.69;1758266;81;20927;-40
2021/12/11 10:09:22;;;;;;;23.25;15.65;;;;;;;7.67;79.24;99055.41;1740665;81;21527;-41
2021/12/11 10:11:57;;;;;;;20.20;14.47;;;;;;;7.63;79.48;99049.14;1758509;81;21049;-41
2021/12/11 10:14:29;;;;;;;23.27;14.83;;;;;;;7.60;79.69;99062.73;1758285;81;21006;-40
2021/12/11 10:16:59;;;;;;;24.23;14.95;;;;;;;7.59;79.74;99061.76;1757083;81;22336;-41
2021/12/11 10:19:29;;;;;;;19.52;14.95;;;;;;;7.54;79.98;99060.66;1762214;81;21021;-41
2021/12/11 10:21:59;;;;;;;20.43;14.30;;;;;;;7.54;79.98;99056.62;1766594;80;21045;-40
2021/12/11 10:24:27;;;;;;;18.60;14.23;;;;;;;7.53;79.99;99056.39;1757692;81;20938;-41
2021/12/11 10:26:54;;;;;;;22.93;14.98;;;;;;;7.52;80.00;99062.91;1766513;81;21104;-41
2021/12/11 10:29:21;;;;;;;18.57;13.55;;;;;;;7.50;80.07;99058.44;1766504;81;21872;-41
2021/12/11 10:31:56;;;;;;;17.27;13.30;;;;;;;7.45;80.15;99054.65;1766165;81;21042;-40
2021/12/11 10:34:25;;;;;;;18.90;13.95;;;;;;;7.47;80.17;99059.11;1766472;81;21316;-41
2021/12/11 10:36:57;;;;;;;18.15;13.95;;;;;;;7.44;80.15;99049.81;1766383;81;22026;-41
2021/12/11 10:39:24;;;;;;;22.25;14.75;;;;;;;7.41;80.22;99047.23;1766162;81;21027;-41
2021/12/11 10:41:51;;;;;;;24.63;15.93;;;;;;;7.41;80.20;99053.19;1766426;81;21132;-41
2021/12/11 10:44:23;;;;;;;22.98;15.58;;;;;;;7.39;80.23;99041.41;1766467;81;21061;-40
2021/12/11 10:46:59;;;;;;;24.40;15.28;;;;;;;7.37;80.28;99046.92;1766435;81;21508;-40
2021/12/11 10:49:26;;;;;;;24.15;17.57;;;;;;;7.38;80.21;99053.33;1766652;80;21021;-41
2021/12/11 10:51:58;;;;;;;24.92;16.95;;;;;;;7.35;80.10;99050.54;1766543;81;21029;-41
2021/12/11 10:54:26;;;;;;;24.50;17.10;;;;;;;7.33;80.05;99048.18;1764450;81;21954;-41
2021/12/11 10:56:52;;;;;;;23.07;17.15;;;;;;;7.33;79.98;99044.13;1766369;81;21009;-40
2021/12/11 10:59:23;;;;;;;24.47;17.87;;;;;;;7.30;79.84;99038.09;1766384;81;21583;-41
2021/12/11 11:02:01;;;;;;;21.82;15.95;;;;;;;7.27;80.01;99046.86;1766494;81;21511;-40
2021/12/11 11:04:33;;;;;;;23.07;17.12;;;;;;;7.26;80.05;99046.63;1765774;81;21056;-40
2021/12/11 11:07:01;;;;;;;24.55;16.70;;;;;;;7.25;79.78;99042.95;1766467;81;21173;-41
2021/12/11 11:09:29;;;;;;;21.02;15.23;;;;;;;7.22;79.91;99048.45;1766250;81;20966;-40
2021/12/11 11:11:58;;;;;;;21.97;14.80;;;;;;;7.20;79.73;99040.50;1766270;81;20965;-40
2021/12/11 11:14:25;;;;;;;20.75;14.98;;;;;;;7.22;79.54;99047.10;1766577;81;21065;-40
2021/12/11 11:16:56;;;;;;;18.87;13.05;;;;;;;7.20;79.52;99050.73;1760046;81;21092;-40
2021/12/11 11:19:25;;;;;;;18.67;13.45;;;;;;;7.15;79.55;99047.48;1766290;81;21111;-41
2021/12/11 11:21:58;;;;;;;18.75;13.95;;;;;;;7.17;79.46;99041.95;1766255;81;21015;-40
2021/12/11 11:24:32;;;;;;;19.23;11.90;;;;;;;7.16;79.35;99052.55;1765975;81;20977;-40
2021/12/11 11:26:59;;;;;;;18.48;12.05;;;;;;;7.14;79.48;99048.05;1766535;81;20976;-40
2021/12/11 11:29:27;;;;;;;16.12;11.12;;;;;;;7.14;79.42;99048.05;1766364;81;21042;-40
2021/12/11 11:31:57;;;;;;;13.65;10.20;;;;;;;7.13;79.52;99051.87;1766786;81;21090;-40
2021/12/11 11:34:26;;;;;;;13.22;10.38;;;;;;;7.14;79.54;99058.05;1766533;81;20922;-41
2021/12/11 11:36:54;;;;;;;12.43;9.25;;;;;;;7.14;79.58;99058.83;1766241;81;21061;-40
2021/12/11 11:39:22;;;;;;;15.93;9.63;;;;;;;7.16;79.66;99067.38;1766732;81;21025;-40
2021/12/11 11:41:59;;;;;;;11.95;8.70;;;;;;;7.15;79.65;99063.66;1767007;81;21320;-40
2021/12/11 11:44:27;;;;;;;14.15;10.30;;;;;;;7.16;79.69;99070.07;1766446;81;21126;-40
2021/12/11 11:46:57;;;;;;;16.25;10.28;;;;;;;7.17;79.74;99064.88;1766943;81;20997;-40
2021/12/11 11:49:23;;;;;;;12.93;9.63;;;;;;;7.17;79.80;99060.83;1766698;81;21021;-41
2021/12/11 11:51:55;;;;;;;17.37;9.40;;;;;;;7.19;79.80;99059.94;1766652;81;21025;-40
2021/12/11 11:54:23;;;;;;;13.35;10.30;;;;;;;7.23;79.72;99066.77;1766606;81;21052;-41
2021/12/11 11:57:04;;;;;;;15.55;9.80;;;;;;;7.23;79.71;99061.38;1766749;81;21096;-40
2021/12/11 11:59:32;;;;;;;15.35;9.15;;;;;;;7.20;79.70;99064.20;1766508;81;20888;-41